createdAt,value
2023-02-23T00:02:27.676Z,3.20
2023-02-23T00:06:33.450Z,3.10
2023-02-23T00:10:38.464Z,3.10
2023-02-23T00:14:41.906Z,3.00
2023-02-23T00:18:54.428Z,3.00
2023-02-23T00:22:58.891Z,2.90
2023-02-23T00:27:06.474Z,2.90
2023-02-23T00:31:38.808Z,2.90
2023-02-23T00:35:42.884Z,2.80
2023-02-23T00:39:52.237Z,2.70
2023-02-23T00:43:59.114Z,2.60
2023-02-23T00:48:04.769Z,2.60
2023-02-23T00:52:40.333Z,2.60
2023-02-23T00:56:44.339Z,2.50
2023-02-23T01:00:49.267Z,2.60
2023-02-23T01:04:56.090Z,2.60
2023-02-23T01:09:05.508Z,2.60
2023-02-23T01:13:08.885Z,2.60
2023-02-23T01:17:13.838Z,2.70
2023-02-23T01:21:21.540Z,2.70
2023-02-23T01:25:28.737Z,2.70
2023-02-23T01:29:32.190Z,2.70
2023-02-23T01:33:53.796Z,2.70
2023-02-23T01:37:57.160Z,2.70
2023-02-23T01:42:01.128Z,2.70
2023-02-23T01:46:32.734Z,2.70
2023-02-23T01:50:46.893Z,2.70
2023-02-23T01:54:55.051Z,2.70
2023-02-23T01:59:04.722Z,2.70
2023-02-23T02:03:37.645Z,2.70
2023-02-23T02:08:02.596Z,2.70
2023-02-23T02:12:08.681Z,2.70
2023-02-23T02:16:33.505Z,2.60
2023-02-23T02:21:06.983Z,2.60
2023-02-23T02:25:46.149Z,2.60
2023-02-23T02:30:28.679Z,2.70
2023-02-23T02:35:04.528Z,2.70
2023-02-23T02:39:23.188Z,2.70
2023-02-23T02:43:40.823Z,2.80
2023-02-23T02:48:08.147Z,2.90
2023-02-23T02:52:18.578Z,2.90
2023-02-23T02:56:26.656Z,2.80
2023-02-23T03:05:26.017Z,2.80
2023-02-23T03:09:54.050Z,2.70
2023-02-23T03:14:45.512Z,2.70
2023-02-23T03:19:59.284Z,2.80
2023-02-23T03:24:33.525Z,2.80
2023-02-23T03:34:21.307Z,2.80
2023-02-23T03:38:53.973Z,2.80
2023-02-23T03:43:18.330Z,2.80
2023-02-23T03:48:00.312Z,2.90
2023-02-23T03:52:29.020Z,2.90
2023-02-23T04:06:49.937Z,2.90
2023-02-23T04:11:34.677Z,2.90
2023-02-23T04:16:19.353Z,2.90
2023-02-23T04:20:23.579Z,2.90
2023-02-23T04:24:27.334Z,3.00
2023-02-23T04:28:32.120Z,3.10
2023-02-23T04:32:35.816Z,3.10
2023-02-23T04:36:44.070Z,3.20
2023-02-23T04:40:47.603Z,3.30
2023-02-23T04:44:52.409Z,3.30
2023-02-23T04:49:09.049Z,3.30
2023-02-23T04:53:12.413Z,3.40
2023-02-23T04:57:16.014Z,3.50
2023-02-23T05:01:46.260Z,3.60
2023-02-23T05:06:12.857Z,3.60
2023-02-23T05:10:16.309Z,3.70
2023-02-23T05:14:20.219Z,3.70
2023-02-23T05:18:27.628Z,3.70
2023-02-23T05:22:31.092Z,3.80
2023-02-23T05:26:39.295Z,3.80
2023-02-23T05:30:42.921Z,3.80
2023-02-23T05:34:50.178Z,3.80
2023-02-23T05:38:53.677Z,3.70
2023-02-23T05:43:00.552Z,3.80
2023-02-23T05:47:05.214Z,3.70
2023-02-23T05:51:13.580Z,3.60
2023-02-23T05:55:41.853Z,3.60
2023-02-23T06:00:13.657Z,3.50
2023-02-23T06:04:42.145Z,3.40
2023-02-23T06:09:44.473Z,3.50
2023-02-23T06:13:49.941Z,3.40
2023-02-23T06:17:53.798Z,3.30
2023-02-23T06:22:23.902Z,3.20
2023-02-23T06:26:27.446Z,3.20
2023-02-23T06:30:32.400Z,3.20
2023-02-23T06:34:38.514Z,3.20
2023-02-23T06:38:42.059Z,3.30
2023-02-23T06:42:50.579Z,3.20
2023-02-23T06:46:55.443Z,3.20
2023-02-23T06:51:00.342Z,3.10
2023-02-23T06:55:28.887Z,3.10
2023-02-23T06:59:32.444Z,3.10
2023-02-23T07:03:37.628Z,3.10
2023-02-23T07:07:41.266Z,3.10
2023-02-23T07:11:45.730Z,3.20
2023-02-23T07:21:26.735Z,3.70
2023-02-23T07:25:30.544Z,3.80
2023-02-23T07:29:34.157Z,4.00
2023-02-23T07:33:37.699Z,4.10
2023-02-23T07:37:42.638Z,4.20
2023-02-23T07:41:46.109Z,4.40
2023-02-23T07:46:01.989Z,4.60
2023-02-23T07:50:30.653Z,4.90
2023-02-23T07:54:35.537Z,5.00
2023-02-23T07:58:38.954Z,5.10
2023-02-23T08:03:23.755Z,5.10
2023-02-23T08:07:27.252Z,5.30
2023-02-23T08:11:32.183Z,5.40
2023-02-23T08:15:35.638Z,5.50
2023-02-23T08:19:39.156Z,5.60
2023-02-23T08:24:12.046Z,5.60
2023-02-23T08:28:16.904Z,5.80
2023-02-23T08:32:26.479Z,5.90
2023-02-23T08:36:30.203Z,6.00
2023-02-23T08:40:33.769Z,6.00
2023-02-23T08:44:56.017Z,6.00
2023-02-23T08:48:59.553Z,6.00
2023-02-23T08:53:03.098Z,6.00
2023-02-23T08:57:06.859Z,6.40
2023-02-23T09:01:26.084Z,6.60
2023-02-23T09:05:29.947Z,6.80
2023-02-23T09:09:34.326Z,7.00
2023-02-23T09:14:02.800Z,7.20
2023-02-23T09:18:08.865Z,7.40
2023-02-23T09:22:12.376Z,7.60
2023-02-23T09:26:16.584Z,7.80
2023-02-23T09:30:21.568Z,8.00
2023-02-23T09:34:29.603Z,8.10
2023-02-23T09:38:34.094Z,8.20
2023-02-23T09:42:54.290Z,8.40
2023-02-23T09:47:16.457Z,8.60
2023-02-23T09:51:23.301Z,8.60
2023-02-23T09:55:28.557Z,8.80
2023-02-23T09:59:32.212Z,8.90
2023-02-23T10:03:40.119Z,8.90
2023-02-23T10:08:05.316Z,9.00
2023-02-23T10:12:12.954Z,9.10
2023-02-23T10:17:31.217Z,9.20
2023-02-23T10:21:37.579Z,9.40
2023-02-23T10:26:32.151Z,9.40
2023-02-23T10:30:42.629Z,9.50
2023-02-23T10:34:49.776Z,9.60
2023-02-23T10:38:59.091Z,9.60
2023-02-23T10:43:29.099Z,9.50
2023-02-23T10:47:53.968Z,9.40
2023-02-23T10:56:46.651Z,9.60
2023-02-23T11:05:47.782Z,9.80
2023-02-23T11:09:53.014Z,9.70
2023-02-23T11:13:58.391Z,9.50
2023-02-23T11:18:03.891Z,9.60
2023-02-23T11:22:27.213Z,9.70
2023-02-23T11:26:35.213Z,9.60
2023-02-23T11:30:43.642Z,9.50
2023-02-23T11:35:28.313Z,9.20
2023-02-23T11:39:33.436Z,9.30
2023-02-23T11:43:37.384Z,9.30
2023-02-23T11:48:31.367Z,9.20
2023-02-23T11:52:36.785Z,9.20
2023-02-23T11:56:41.765Z,9.30
2023-02-23T12:00:57.884Z,9.30
2023-02-23T12:05:08.863Z,9.40
2023-02-23T12:10:02.314Z,9.40
2023-02-23T12:14:26.179Z,9.50
2023-02-23T12:18:40.626Z,9.50
2023-02-23T12:22:48.148Z,9.80
2023-02-23T12:26:56.457Z,9.90
2023-02-23T12:31:31.139Z,9.60
2023-02-23T12:35:45.791Z,9.50
2023-02-23T12:39:56.442Z,9.50
2023-02-23T12:44:04.632Z,9.40
2023-02-23T12:48:23.916Z,9.40
2023-02-23T12:52:30.581Z,9.40
2023-02-23T12:56:44.187Z,9.30
2023-02-23T13:01:24.783Z,9.30
2023-02-23T13:05:32.703Z,9.30
2023-02-23T13:10:28.447Z,9.50
2023-02-23T13:14:40.523Z,9.70
2023-02-23T13:18:48.678Z,9.80
2023-02-23T13:23:06.595Z,9.80
2023-02-23T13:27:35.627Z,9.70
2023-02-23T13:31:49.575Z,9.70
2023-02-23T13:35:54.954Z,9.60
2023-02-23T13:40:12.859Z,9.40
2023-02-23T13:44:24.013Z,9.40
2023-02-23T13:48:57.315Z,9.20
2023-02-23T13:53:06.659Z,9.00
2023-02-23T13:57:16.854Z,9.10
2023-02-23T14:01:23.994Z,9.10
2023-02-23T14:05:30.176Z,9.10
2023-02-23T14:09:37.224Z,9.20
2023-02-23T14:13:58.469Z,9.20
2023-02-23T14:18:03.677Z,9.30
2023-02-23T14:22:11.256Z,9.30
2023-02-23T14:26:39.453Z,9.20
2023-02-23T14:35:59.986Z,9.10
2023-02-23T14:40:33.054Z,8.90
2023-02-23T14:44:43.556Z,8.80
2023-02-23T14:49:10.485Z,8.80
2023-02-23T14:53:21.257Z,8.80
2023-02-23T14:57:26.648Z,8.90
2023-02-23T15:02:31.949Z,8.80
2023-02-23T15:06:38.133Z,8.70
2023-02-23T15:11:33.348Z,8.60
2023-02-23T15:15:45.624Z,8.40
2023-02-23T15:19:51.673Z,8.40
2023-02-23T15:24:06.423Z,8.40
2023-02-23T15:28:29.751Z,8.40
2023-02-23T15:32:33.471Z,8.30
2023-02-23T15:36:38.883Z,8.30
2023-02-23T15:40:43.922Z,8.30
2023-02-23T15:45:01.057Z,8.30
2023-02-23T15:49:06.626Z,8.30
2023-02-23T15:53:30.294Z,8.20
2023-02-23T15:57:44.943Z,8.20
2023-02-23T16:01:48.986Z,8.10
2023-02-23T16:06:00.576Z,8.10
2023-02-23T16:10:24.985Z,8.00
2023-02-23T16:19:15.113Z,8.00
2023-02-23T16:23:34.537Z,7.90
2023-02-23T16:27:40.191Z,7.80
2023-02-23T16:32:20.111Z,7.70
2023-02-23T16:36:41.202Z,7.70
2023-02-23T16:40:45.779Z,7.50
2023-02-23T16:44:51.443Z,7.50
2023-02-23T16:49:05.440Z,7.50
2023-02-23T16:53:10.797Z,7.40
2023-02-23T16:57:25.608Z,7.40
2023-02-23T17:01:29.188Z,7.50
2023-02-23T17:05:56.158Z,7.40
2023-02-23T17:10:00.290Z,7.40
2023-02-23T17:14:24.643Z,7.30
2023-02-23T17:18:31.746Z,7.30
2023-02-23T17:22:37.852Z,7.30
2023-02-23T17:27:07.926Z,7.30
2023-02-23T17:31:12.627Z,7.20
2023-02-23T17:35:21.706Z,7.20
2023-02-23T17:39:28.335Z,7.20
2023-02-23T17:44:22.796Z,7.20
2023-02-23T17:48:27.924Z,7.20
2023-02-23T17:53:40.976Z,7.10
2023-02-23T17:57:46.305Z,7.10
2023-02-23T18:02:15.689Z,7.10
2023-02-23T18:06:19.892Z,7.10
2023-02-23T18:10:26.657Z,7.00
2023-02-23T18:14:31.679Z,7.00
2023-02-23T18:18:35.483Z,6.90
2023-02-23T18:22:57.776Z,6.90
2023-02-23T18:27:01.990Z,6.70
2023-02-23T18:31:28.828Z,6.60
2023-02-23T18:35:36.203Z,6.60
2023-02-23T18:39:41.864Z,6.60
2023-02-23T18:43:45.804Z,6.60
2023-02-23T18:47:53.002Z,6.60
2023-02-23T18:51:56.958Z,6.70
2023-02-23T18:56:14.496Z,6.70
2023-02-23T19:00:21.235Z,6.70
2023-02-23T19:04:27.360Z,6.70
2023-02-23T19:08:31.664Z,6.70
2023-02-23T19:12:36.749Z,6.70
2023-02-23T19:17:09.928Z,6.70
2023-02-23T19:21:14.845Z,6.70
2023-02-23T19:25:23.293Z,6.70
2023-02-23T19:29:26.797Z,6.70
2023-02-23T19:33:31.765Z,6.70
2023-02-23T19:37:40.931Z,6.70
2023-02-23T19:41:46.262Z,6.60
2023-02-23T19:46:05.710Z,6.70
2023-02-23T19:50:13.853Z,6.70
2023-02-23T19:54:56.013Z,6.70
2023-02-23T19:59:04.811Z,6.70
2023-02-23T20:07:43.469Z,6.60
2023-02-23T20:11:57.106Z,6.50
2023-02-23T20:22:30.114Z,6.50
2023-02-23T20:26:37.275Z,6.40
2023-02-23T20:31:12.508Z,6.40
2023-02-23T20:35:21.684Z,6.40
2023-02-23T20:39:35.585Z,6.40
2023-02-23T20:43:45.210Z,6.20
2023-02-23T20:47:53.957Z,6.30
2023-02-23T20:52:12.148Z,6.30
2023-02-23T20:56:25.739Z,6.20
2023-02-23T21:00:31.949Z,6.20
2023-02-23T21:04:45.711Z,6.20
2023-02-23T21:13:35.735Z,6.30
2023-02-23T21:17:40.754Z,6.20
2023-02-23T21:21:58.080Z,6.30
2023-02-23T21:35:04.408Z,6.20
2023-02-23T21:39:37.323Z,6.20
2023-02-23T21:43:46.260Z,6.30
2023-02-23T21:47:59.416Z,6.30
2023-02-23T21:52:09.932Z,6.30
2023-02-23T21:56:31.677Z,6.20
2023-02-23T22:00:36.116Z,6.10
2023-02-23T22:04:41.579Z,6.00
2023-02-23T22:08:52.448Z,6.00
2023-02-23T22:13:00.291Z,6.10
2023-02-23T22:17:04.625Z,6.10
2023-02-23T22:21:37.098Z,6.20
2023-02-23T22:25:40.721Z,6.20
2023-02-23T22:29:49.725Z,6.20
2023-02-23T22:33:56.500Z,6.30
2023-02-23T22:38:01.291Z,6.30
2023-02-23T22:42:24.812Z,6.30
2023-02-23T22:46:30.019Z,6.30
2023-02-23T22:51:32.502Z,6.30
2023-02-23T22:55:38.611Z,6.40
2023-02-23T22:59:54.889Z,6.40
2023-02-23T23:04:11.737Z,6.30
2023-02-23T23:08:15.561Z,6.40
2023-02-23T23:12:19.332Z,6.30
2023-02-23T23:16:50.162Z,6.30
2023-02-23T23:20:55.572Z,6.30
2023-02-23T23:25:29.790Z,6.30
2023-02-23T23:29:33.463Z,6.30
2023-02-23T23:34:31.315Z,6.30
2023-02-23T23:38:38.718Z,6.30
2023-02-23T23:43:37.198Z,6.30
2023-02-23T23:48:09.684Z,6.30
2023-02-23T23:52:18.014Z,6.20
2023-02-23T23:56:34.960Z,6.20
